createdAt,value
2018-11-04T00:01:19.419Z,19.50
2018-11-04T00:03:46.611Z,26.00
2018-11-04T00:06:13.811Z,24.87
2018-11-04T00:08:40.974Z,30.40
2018-11-04T00:11:08.187Z,24.63
2018-11-04T00:13:35.353Z,18.80
2018-11-04T00:16:02.623Z,22.80
2018-11-04T00:18:29.820Z,25.33
2018-11-04T00:20:56.982Z,25.83
2018-11-04T00:23:24.167Z,21.63
2018-11-04T00:25:51.335Z,22.90
2018-11-04T00:28:18.522Z,24.03
2018-11-04T00:30:45.694Z,25.73
2018-11-04T00:33:12.895Z,23.50
2018-11-04T00:35:40.066Z,22.67
2018-11-04T00:38:07.227Z,25.70
2018-11-04T00:40:34.414Z,21.77
2018-11-04T00:43:01.728Z,23.10
2018-11-04T00:45:28.960Z,21.87
2018-11-04T00:47:56.122Z,22.03
2018-11-04T00:50:23.315Z,26.10
2018-11-04T00:52:50.487Z,23.13
2018-11-04T00:55:17.679Z,27.10
2018-11-04T00:57:44.855Z,23.97
2018-11-04T01:00:14.230Z,27.67
2018-11-04T01:02:41.734Z,24.50
2018-11-04T01:05:09.479Z,25.43
2018-11-04T01:07:37.045Z,25.90
2018-11-04T01:10:04.774Z,62.67
2018-11-04T01:12:32.130Z,26.23
2018-11-04T01:14:59.327Z,28.50
2018-11-04T01:17:26.501Z,24.83
2018-11-04T01:19:53.668Z,28.60
2018-11-04T01:22:20.852Z,24.63
2018-11-04T01:24:48.020Z,29.23
2018-11-04T01:27:15.215Z,31.27
2018-11-04T01:29:42.403Z,29.27
2018-11-04T01:32:09.633Z,26.37
2018-11-04T01:34:36.822Z,24.77
2018-11-04T01:37:04.024Z,23.80
2018-11-04T01:39:31.195Z,25.00
2018-11-04T01:41:58.390Z,28.50
2018-11-04T01:44:25.594Z,28.30
2018-11-04T01:46:52.770Z,32.47
2018-11-04T01:49:19.968Z,25.27
2018-11-04T01:51:47.141Z,25.50
2018-11-04T01:54:14.336Z,29.73
2018-11-04T01:56:41.538Z,29.07
2018-11-04T01:59:08.732Z,32.07
2018-11-04T02:01:35.896Z,40.40
2018-11-04T02:04:03.087Z,30.03
2018-11-04T02:06:30.286Z,25.17
2018-11-04T02:08:57.631Z,27.07
2018-11-04T02:11:24.867Z,26.47
2018-11-04T02:13:52.084Z,30.97
2018-11-04T02:16:19.270Z,24.90
2018-11-04T02:18:46.447Z,29.17
2018-11-04T02:21:13.631Z,28.80
2018-11-04T02:23:40.835Z,24.57
2018-11-04T02:26:08.007Z,22.20
2018-11-04T02:28:35.190Z,21.90
2018-11-04T02:31:02.894Z,31.37
2018-11-04T02:33:30.087Z,25.50
2018-11-04T02:35:57.265Z,26.10
2018-11-04T02:38:24.454Z,26.70
2018-11-04T02:40:51.636Z,28.40
2018-11-04T02:43:18.822Z,31.17
2018-11-04T02:45:46.015Z,24.63
2018-11-04T02:48:13.211Z,28.50
2018-11-04T02:50:40.375Z,28.63
2018-11-04T02:53:07.563Z,30.57
2018-11-04T02:55:34.734Z,26.10
2018-11-04T02:58:02.074Z,27.60
2018-11-04T03:00:29.279Z,24.03
2018-11-04T03:02:56.477Z,27.87
2018-11-04T03:05:23.647Z,27.37
2018-11-04T03:07:50.818Z,24.20
2018-11-04T03:10:18.010Z,24.37
2018-11-04T03:12:45.194Z,25.87
2018-11-04T03:15:12.378Z,26.57
2018-11-04T03:17:39.574Z,29.60
2018-11-04T03:20:06.914Z,30.00
2018-11-04T03:22:34.098Z,23.60
2018-11-04T03:25:01.291Z,25.40
2018-11-04T03:27:28.714Z,28.57
2018-11-04T03:29:55.955Z,28.93
2018-11-04T03:32:23.130Z,27.03
2018-11-04T03:34:50.322Z,31.87
2018-11-04T03:37:17.487Z,26.57
2018-11-04T03:39:44.694Z,28.20
2018-11-04T03:42:11.927Z,27.80
2018-11-04T03:44:39.095Z,25.40
2018-11-04T03:47:06.336Z,23.20
2018-11-04T03:49:33.567Z,32.73
2018-11-04T03:52:01.402Z,26.60
2018-11-04T03:54:28.601Z,27.50
2018-11-04T03:56:55.778Z,30.77
2018-11-04T03:59:22.971Z,30.20
2018-11-04T04:01:50.122Z,37.97
2018-11-04T04:04:17.323Z,47.23
2018-11-04T04:06:44.535Z,40.67
2018-11-04T04:09:11.868Z,27.23
2018-11-04T04:11:39.047Z,32.73
2018-11-04T04:14:06.626Z,33.60
2018-11-04T04:16:33.779Z,32.77
2018-11-04T04:19:01.288Z,40.53
2018-11-04T04:21:28.435Z,38.50
2018-11-04T04:23:55.599Z,41.17
2018-11-04T04:26:22.771Z,39.73
2018-11-04T04:28:49.945Z,39.10
2018-11-04T04:31:17.127Z,42.00
2018-11-04T04:33:44.289Z,42.20
2018-11-04T04:36:11.438Z,43.10
2018-11-04T04:38:38.624Z,42.30
2018-11-04T04:41:06.066Z,41.90
2018-11-04T04:43:33.229Z,48.27
2018-11-04T04:46:00.383Z,43.70
2018-11-04T04:48:27.560Z,46.20
2018-11-04T04:50:54.706Z,47.00
2018-11-04T04:53:23.733Z,45.03
2018-11-04T04:55:51.138Z,45.97
2018-11-04T04:58:18.311Z,43.30
2018-11-04T05:00:45.514Z,48.53
2018-11-04T05:03:12.663Z,49.80
2018-11-04T05:05:39.851Z,47.80
2018-11-04T05:08:07.024Z,46.67
2018-11-04T05:10:34.175Z,47.40
2018-11-04T05:13:01.359Z,49.10
2018-11-04T05:15:28.542Z,45.57
2018-11-04T05:17:55.708Z,45.97
2018-11-04T05:20:22.891Z,50.10
2018-11-04T05:22:50.541Z,43.33
2018-11-04T05:25:17.727Z,38.33
2018-11-04T05:27:44.911Z,40.80
2018-11-04T05:30:12.621Z,44.77
2018-11-04T05:32:39.959Z,46.03
2018-11-04T05:35:07.459Z,41.70
2018-11-04T05:37:34.654Z,40.70
2018-11-04T05:40:05.030Z,41.40
2018-11-04T05:42:32.214Z,38.80
2018-11-04T05:44:59.396Z,41.10
2018-11-04T05:47:26.561Z,44.60
2018-11-04T05:49:53.745Z,45.43
2018-11-04T05:52:20.911Z,46.37
2018-11-04T05:54:48.087Z,38.00
2018-11-04T05:57:15.342Z,40.30
2018-11-04T05:59:42.619Z,46.70
2018-11-04T06:02:09.806Z,48.10
2018-11-04T06:04:37.007Z,43.50
2018-11-04T06:07:04.347Z,50.00
2018-11-04T06:09:31.543Z,49.33
2018-11-04T06:11:58.694Z,48.83
2018-11-04T06:14:25.919Z,44.10
2018-11-04T06:16:53.099Z,41.83
2018-11-04T06:19:20.312Z,44.23
2018-11-04T06:21:47.468Z,44.60
2018-11-04T06:24:14.638Z,44.73
2018-11-04T06:26:41.820Z,43.67
2018-11-04T06:29:09.499Z,48.03
2018-11-04T06:31:36.714Z,47.43
2018-11-04T06:34:03.883Z,39.07
2018-11-04T06:36:31.039Z,40.90
2018-11-04T06:38:58.227Z,46.67
2018-11-04T06:41:25.371Z,40.43
2018-11-04T06:43:52.578Z,40.57
2018-11-04T06:46:19.734Z,35.20
2018-11-04T06:48:46.923Z,39.37
2018-11-04T06:51:14.116Z,41.63
2018-11-04T06:53:41.303Z,35.07
2018-11-04T06:56:08.458Z,36.17
2018-11-04T06:58:35.645Z,35.73
2018-11-04T07:01:03.100Z,36.00
2018-11-04T07:03:30.248Z,36.88
2018-11-04T07:05:57.427Z,43.00
2018-11-04T07:08:24.603Z,45.60
2018-11-04T07:10:51.796Z,35.97
2018-11-04T07:13:18.964Z,38.77
2018-11-04T07:15:46.155Z,35.80
2018-11-04T07:18:13.335Z,41.50
2018-11-04T07:20:40.514Z,38.47
2018-11-04T07:23:07.690Z,49.03
2018-11-04T07:25:34.907Z,44.53
2018-11-04T07:28:02.313Z,51.63
2018-11-04T07:30:30.338Z,56.03
2018-11-04T07:32:57.486Z,47.70
2018-11-04T07:35:24.682Z,39.50
2018-11-04T07:37:51.846Z,40.70
2018-11-04T07:40:19.013Z,39.80
2018-11-04T07:42:46.211Z,38.07
2018-11-04T07:45:13.379Z,33.63
2018-11-04T07:47:40.562Z,31.73
2018-11-04T07:50:09.951Z,26.33
2018-11-04T07:52:37.158Z,24.63
2018-11-04T07:55:07.016Z,23.90
2018-11-04T07:57:34.666Z,28.50
2018-11-04T08:02:36.058Z,22.90
2018-11-04T08:05:03.235Z,24.30
2018-11-04T08:07:30.431Z,27.30
2018-11-04T08:09:57.587Z,27.53
2018-11-04T08:12:24.750Z,26.93
2018-11-04T08:14:51.941Z,23.07
2018-11-04T08:17:19.114Z,29.13
2018-11-04T08:19:46.307Z,25.70
2018-11-04T08:22:13.556Z,29.37
2018-11-04T08:24:40.751Z,28.50
2018-11-04T08:27:07.914Z,30.40
2018-11-04T08:29:35.109Z,21.83
2018-11-04T08:32:02.490Z,24.13
2018-11-04T08:34:29.659Z,28.40
2018-11-04T08:36:56.846Z,24.03
2018-11-04T08:39:24.019Z,25.27
2018-11-04T08:41:51.222Z,28.47
2018-11-04T08:44:18.403Z,26.57
2018-11-04T08:46:45.577Z,31.80
2018-11-04T08:49:12.767Z,31.57
2018-11-04T08:51:39.944Z,39.33
2018-11-04T08:54:07.443Z,30.67
2018-11-04T08:56:34.633Z,40.87
2018-11-04T08:59:03.295Z,27.87
2018-11-04T09:01:30.466Z,39.27
2018-11-04T09:03:57.656Z,48.93
2018-11-04T09:06:24.865Z,48.73
2018-11-04T09:08:52.031Z,49.70
2018-11-04T09:11:19.216Z,48.20
2018-11-04T09:13:46.414Z,57.17
2018-11-04T09:16:13.602Z,59.23
2018-11-04T09:18:40.894Z,56.17
2018-11-04T09:21:08.072Z,56.80
2018-11-04T09:23:35.525Z,56.67
2018-11-04T09:26:02.810Z,54.83
2018-11-04T09:28:30.001Z,59.23
2018-11-04T09:30:57.155Z,59.70
2018-11-04T09:33:24.351Z,58.97
2018-11-04T09:35:51.724Z,52.03
2018-11-04T09:38:18.738Z,60.40
2018-11-04T09:40:45.924Z,63.80
2018-11-04T09:43:13.082Z,54.13
2018-11-04T09:45:40.411Z,53.57
2018-11-04T09:48:07.586Z,52.57
2018-11-04T09:50:34.778Z,50.77
2018-11-04T09:53:02.436Z,55.20
2018-11-04T09:55:29.591Z,53.70
2018-11-04T09:57:56.775Z,49.47
2018-11-04T10:00:23.932Z,51.77
2018-11-04T10:02:51.116Z,52.83
2018-11-04T10:05:18.297Z,57.03
2018-11-04T10:07:45.482Z,53.23
2018-11-04T10:10:13.937Z,53.23
2018-11-04T10:12:42.230Z,64.40
2018-11-04T10:15:10.179Z,59.27
2018-11-04T10:17:37.765Z,54.50
2018-11-04T10:20:05.959Z,64.07
2018-11-04T10:22:32.693Z,66.60
2018-11-04T10:24:59.881Z,64.77
2018-11-04T10:27:27.091Z,50.17
2018-11-04T10:29:54.249Z,54.37
2018-11-04T10:32:21.407Z,48.43
2018-11-04T10:34:48.586Z,48.80
2018-11-04T10:37:15.798Z,55.17
2018-11-04T10:39:43.551Z,51.80
2018-11-04T10:42:10.773Z,48.07
2018-11-04T10:44:37.921Z,51.93
2018-11-04T10:47:05.160Z,52.30
2018-11-04T10:49:32.601Z,46.50
2018-11-04T10:51:59.509Z,49.37
2018-11-04T10:54:26.693Z,48.20
2018-11-04T10:56:53.863Z,51.80
2018-11-04T10:59:21.040Z,50.93
2018-11-04T11:01:48.230Z,49.37
2018-11-04T11:04:15.441Z,55.13
2018-11-04T11:06:43.582Z,56.67
2018-11-04T11:09:11.317Z,56.93
2018-11-04T11:11:39.370Z,46.97
2018-11-04T11:14:06.624Z,49.73
2018-11-04T11:16:33.810Z,49.47
2018-11-04T11:19:01.269Z,46.67
2018-11-04T11:21:28.456Z,47.13
2018-11-04T11:23:55.837Z,53.70
2018-11-04T11:26:23.032Z,49.27
2018-11-04T11:28:50.186Z,46.70
2018-11-04T11:31:17.401Z,46.43
2018-11-04T11:33:44.581Z,46.10
2018-11-04T11:36:11.798Z,46.33
2018-11-04T11:38:38.982Z,42.60
2018-11-04T11:41:06.143Z,49.30
2018-11-04T11:43:33.319Z,45.80
2018-11-04T11:46:00.500Z,48.63
2018-11-04T11:48:27.687Z,44.33
2018-11-04T11:50:54.849Z,46.70
2018-11-04T11:53:22.126Z,41.23
2018-11-04T11:55:49.299Z,42.37
2018-11-04T11:58:16.489Z,48.90
2018-11-04T12:00:43.676Z,41.17
2018-11-04T12:03:10.868Z,49.30
2018-11-04T12:05:38.019Z,41.47
2018-11-04T12:08:05.203Z,46.63
2018-11-04T12:10:32.390Z,42.27
2018-11-04T12:12:59.548Z,43.13
2018-11-04T12:15:26.743Z,39.70
2018-11-04T12:17:53.965Z,40.03
2018-11-04T12:20:21.108Z,42.40
2018-11-04T12:22:48.275Z,40.43
2018-11-04T12:25:15.470Z,39.27
2018-11-04T12:27:42.883Z,37.83
2018-11-04T12:30:11.388Z,35.50
2018-11-04T12:32:38.714Z,34.60
2018-11-04T12:35:06.248Z,32.97
2018-11-04T12:37:33.407Z,30.70
2018-11-04T12:40:01.420Z,31.20
2018-11-04T12:42:28.576Z,27.10
2018-11-04T12:44:55.761Z,26.80
2018-11-04T12:47:22.980Z,27.00
2018-11-04T12:49:50.140Z,30.40
2018-11-04T12:52:17.404Z,25.93
2018-11-04T12:54:44.494Z,23.53
2018-11-04T12:57:11.662Z,24.63
2018-11-04T12:59:38.889Z,26.23
2018-11-04T13:02:06.127Z,26.00
2018-11-04T13:04:33.240Z,28.73
2018-11-04T13:07:00.434Z,23.70
2018-11-04T13:09:27.588Z,28.03
2018-11-04T13:11:54.755Z,26.17
2018-11-04T13:14:21.950Z,24.93
2018-11-04T13:16:49.134Z,24.47
2018-11-04T13:19:16.301Z,23.93
2018-11-04T13:21:43.479Z,25.73
2018-11-04T13:24:10.672Z,30.53
2018-11-04T13:26:37.832Z,27.27
2018-11-04T13:29:05.249Z,28.00
2018-11-04T13:31:32.440Z,27.93
2018-11-04T13:33:59.612Z,23.57
2018-11-04T13:36:26.774Z,24.20
2018-11-04T13:38:53.979Z,26.00
2018-11-04T13:41:21.126Z,26.77
2018-11-04T13:43:48.296Z,27.80
2018-11-04T13:46:15.491Z,29.90
2018-11-04T13:48:42.690Z,24.90
2018-11-04T13:51:09.852Z,26.63
2018-11-04T13:53:37.030Z,27.70
2018-11-04T13:56:04.399Z,26.50
2018-11-04T13:58:31.606Z,29.20
2018-11-04T14:00:58.774Z,27.47
2018-11-04T14:03:25.957Z,32.07
2018-11-04T14:05:53.220Z,29.43
2018-11-04T14:08:20.415Z,39.87
2018-11-04T14:10:47.624Z,30.10
2018-11-04T14:13:14.812Z,28.87
2018-11-04T14:15:41.956Z,29.27
2018-11-04T14:18:09.142Z,28.83
2018-11-04T14:20:36.311Z,27.67
2018-11-04T14:23:03.482Z,31.60
2018-11-04T14:25:30.652Z,33.23
2018-11-04T14:27:57.843Z,29.40
2018-11-04T14:30:25.008Z,31.00
2018-11-04T14:32:52.191Z,26.90
2018-11-04T14:35:19.381Z,27.20
2018-11-04T14:37:46.565Z,31.77
2018-11-04T14:40:14.895Z,32.30
2018-11-04T14:42:42.814Z,32.83
2018-11-04T14:45:10.003Z,32.40
2018-11-04T14:47:37.692Z,29.20
2018-11-04T14:50:06.223Z,28.77
2018-11-04T14:52:33.375Z,30.57
2018-11-04T14:55:00.560Z,30.80
2018-11-04T14:57:27.724Z,28.63
2018-11-04T14:59:54.964Z,31.63
2018-11-04T15:02:22.078Z,32.43
2018-11-04T15:04:49.258Z,33.43
2018-11-04T15:07:16.435Z,32.20
2018-11-04T15:09:43.621Z,35.50
2018-11-04T15:12:10.865Z,33.30
2018-11-04T15:14:38.045Z,30.70
2018-11-04T15:17:05.321Z,33.47
2018-11-04T15:19:32.475Z,31.07
2018-11-04T15:21:59.663Z,31.23
2018-11-04T15:24:26.839Z,30.67
2018-11-04T15:26:54.008Z,32.33
2018-11-04T15:29:21.189Z,29.57
2018-11-04T15:31:48.548Z,34.87
2018-11-04T15:34:15.827Z,32.87
2018-11-04T15:36:42.907Z,30.53
2018-11-04T15:39:11.751Z,35.17
2018-11-04T15:41:38.908Z,36.00
2018-11-04T15:44:06.282Z,34.07
2018-11-04T15:46:33.479Z,30.67
2018-11-04T15:49:00.765Z,35.07
2018-11-04T15:51:27.843Z,35.20
2018-11-04T15:53:55.031Z,32.20
2018-11-04T15:56:22.195Z,28.73
2018-11-04T15:58:49.391Z,29.53
2018-11-04T16:01:16.695Z,28.40
2018-11-04T16:03:44.248Z,26.70
2018-11-04T16:06:11.770Z,30.60
2018-11-04T16:08:38.959Z,28.07
2018-11-04T16:11:06.605Z,28.53
2018-11-04T16:13:35.662Z,30.40
2018-11-04T16:16:02.925Z,28.70
2018-11-04T16:18:30.088Z,29.37
2018-11-04T16:20:57.352Z,29.47
2018-11-04T16:23:24.560Z,25.80
2018-11-04T16:25:51.923Z,26.20
2018-11-04T16:28:19.143Z,23.63
2018-11-04T16:30:46.608Z,24.67
2018-11-04T16:33:13.861Z,24.27
2018-11-04T16:35:41.011Z,27.90
2018-11-04T16:38:08.470Z,23.40
2018-11-04T16:40:35.664Z,25.77
2018-11-04T16:43:02.859Z,23.60
2018-11-04T16:45:30.019Z,25.10
2018-11-04T16:47:57.199Z,25.63
2018-11-04T16:50:24.362Z,25.67
2018-11-04T16:52:51.543Z,20.53
2018-11-04T16:55:18.735Z,21.97
2018-11-04T16:57:45.910Z,20.00
2018-11-04T17:00:13.234Z,24.40
2018-11-04T17:02:40.484Z,21.47
2018-11-04T17:05:08.532Z,20.97
2018-11-04T17:07:35.655Z,21.77
2018-11-04T17:10:03.253Z,21.00
2018-11-04T17:12:30.445Z,18.80
2018-11-04T17:14:57.618Z,20.87
2018-11-04T17:17:24.777Z,26.43
2018-11-04T17:19:51.966Z,22.67
2018-11-04T17:22:19.149Z,23.33
2018-11-04T17:24:46.305Z,24.87
2018-11-04T17:27:13.483Z,52.27
2018-11-04T17:29:40.826Z,21.87
2018-11-04T17:32:08.024Z,18.40
2018-11-04T17:34:36.152Z,25.20
2018-11-04T17:37:03.331Z,27.37
2018-11-04T17:39:30.519Z,21.40
2018-11-04T17:41:57.687Z,22.80
2018-11-04T17:44:24.897Z,19.73
2018-11-04T17:46:52.103Z,22.33
2018-11-04T17:49:19.265Z,20.57
2018-11-04T17:51:46.448Z,20.37
2018-11-04T17:54:13.751Z,18.63
2018-11-04T17:56:40.812Z,17.80
2018-11-04T17:59:08.008Z,20.47
2018-11-04T18:01:35.187Z,18.20
2018-11-04T18:04:02.545Z,18.03
2018-11-04T18:06:29.725Z,17.50
2018-11-04T18:08:57.019Z,16.60
2018-11-04T18:11:24.204Z,22.60
2018-11-04T18:13:51.458Z,16.93
2018-11-04T18:16:21.736Z,16.60
2018-11-04T18:18:48.911Z,16.87
2018-11-04T18:21:16.090Z,17.40
2018-11-04T18:23:43.532Z,17.20
2018-11-04T18:26:11.019Z,22.53
2018-11-04T18:28:38.166Z,17.73
2018-11-04T18:31:05.470Z,19.07
2018-11-04T18:33:32.735Z,19.00
2018-11-04T18:35:59.956Z,19.10
2018-11-04T18:38:33.651Z,22.10
2018-11-04T18:41:02.539Z,17.70
2018-11-04T18:43:29.729Z,18.03
2018-11-04T18:45:56.911Z,27.03
2018-11-04T18:48:24.103Z,21.00
2018-11-04T18:50:51.255Z,22.40
2018-11-04T18:53:18.436Z,20.47
2018-11-04T18:55:45.615Z,18.20
2018-11-04T18:58:12.807Z,18.80
2018-11-04T19:00:40.047Z,20.27
2018-11-04T19:03:07.218Z,20.30
2018-11-04T19:05:34.424Z,21.10
2018-11-04T19:08:02.504Z,21.50
2018-11-04T19:10:29.655Z,20.23
2018-11-04T19:12:56.853Z,20.60
2018-11-04T19:15:24.049Z,18.70
2018-11-04T19:17:51.235Z,19.50
2018-11-04T19:20:18.435Z,21.10
2018-11-04T19:22:45.637Z,20.97
2018-11-04T19:25:13.928Z,19.80
2018-11-04T19:27:42.267Z,19.33
2018-11-04T19:30:11.944Z,21.70
2018-11-04T19:32:39.711Z,21.40
2018-11-04T19:35:09.473Z,23.00
2018-11-04T19:37:37.693Z,32.23
2018-11-04T19:40:06.670Z,29.00
2018-11-04T19:42:35.109Z,23.23
2018-11-04T19:45:03.571Z,20.07
2018-11-04T19:47:30.769Z,18.70
2018-11-04T19:49:57.951Z,20.63
2018-11-04T19:52:25.107Z,25.73
2018-11-04T19:54:52.295Z,19.80
2018-11-04T19:57:23.059Z,23.73
2018-11-04T19:59:50.224Z,22.60
2018-11-04T20:02:18.253Z,20.40
2018-11-04T20:04:45.487Z,24.83
2018-11-04T20:07:13.248Z,25.33
2018-11-04T20:09:40.427Z,21.03
2018-11-04T20:12:11.944Z,24.87
2018-11-04T20:14:39.098Z,22.97
2018-11-04T20:17:06.292Z,24.83
2018-11-04T20:19:38.991Z,25.73
2018-11-04T20:22:06.051Z,22.90
2018-11-04T20:24:38.657Z,24.30
2018-11-04T20:27:05.942Z,23.90
2018-11-04T20:29:33.151Z,23.43
2018-11-04T20:32:05.816Z,22.10
2018-11-04T20:34:32.975Z,24.77
2018-11-04T20:37:00.135Z,26.33
2018-11-04T20:39:32.883Z,25.00
2018-11-04T20:42:00.068Z,26.83
2018-11-04T20:44:29.874Z,25.10
2018-11-04T20:46:57.032Z,24.20
2018-11-04T20:49:29.772Z,25.00
2018-11-04T20:51:57.021Z,25.60
2018-11-04T20:54:24.143Z,27.53
2018-11-04T20:56:56.919Z,26.37
2018-11-04T20:59:24.147Z,25.93
2018-11-04T21:01:51.321Z,26.13
2018-11-04T21:04:18.521Z,28.30
2018-11-04T21:06:45.734Z,27.83
2018-11-04T21:09:12.927Z,23.40
2018-11-04T21:11:40.090Z,28.30
2018-11-04T21:14:07.815Z,23.90
2018-11-04T21:16:35.103Z,20.60
2018-11-04T21:19:09.555Z,29.50
2018-11-04T21:21:36.782Z,28.70
2018-11-04T21:24:03.919Z,33.33
2018-11-04T21:26:31.080Z,29.17
2018-11-04T21:28:58.457Z,27.10
2018-11-04T21:31:25.451Z,23.67
2018-11-04T21:33:52.654Z,23.60
2018-11-04T21:36:22.256Z,22.27
2018-11-04T21:38:49.415Z,23.63
2018-11-04T21:41:16.602Z,23.23
2018-11-04T21:43:44.001Z,22.03
2018-11-04T21:46:10.981Z,23.10
2018-11-04T21:48:38.170Z,27.27
2018-11-04T21:51:05.506Z,24.40
2018-11-04T21:53:32.549Z,22.63
2018-11-04T21:56:00.002Z,20.60
2018-11-04T21:58:27.252Z,21.07
2018-11-04T22:00:54.457Z,19.47
2018-11-04T22:03:21.803Z,22.80
2018-11-04T22:05:48.834Z,24.17
2018-11-04T22:08:16.014Z,25.87
2018-11-04T22:10:43.232Z,25.43
2018-11-04T22:13:10.359Z,25.20
2018-11-04T22:15:37.559Z,28.03
2018-11-04T22:18:04.901Z,27.30
2018-11-04T22:20:32.089Z,29.70
2018-11-04T22:22:59.238Z,26.20
2018-11-04T22:25:26.451Z,25.67
2018-11-04T22:27:53.655Z,28.57
2018-11-04T22:30:20.839Z,27.20
2018-11-04T22:32:48.035Z,32.97
2018-11-04T22:35:15.198Z,26.80
2018-11-04T22:37:42.396Z,28.37
2018-11-04T22:40:10.475Z,36.10
2018-11-04T22:42:37.755Z,29.53
2018-11-04T22:45:05.702Z,28.90
2018-11-04T22:47:32.908Z,30.37
2018-11-04T22:50:00.067Z,32.70
2018-11-04T22:52:27.239Z,29.03
2018-11-04T22:54:54.423Z,28.70
2018-11-04T22:57:21.592Z,31.97
2018-11-04T22:59:48.798Z,29.20
2018-11-04T23:02:16.027Z,32.10
2018-11-04T23:04:48.776Z,32.33
2018-11-04T23:07:15.974Z,30.17
2018-11-04T23:09:43.151Z,31.73
2018-11-04T23:12:10.370Z,27.93
2018-11-04T23:14:37.550Z,25.63
2018-11-04T23:17:04.759Z,32.27
2018-11-04T23:19:31.952Z,26.70
2018-11-04T23:21:59.103Z,29.20
2018-11-04T23:24:26.302Z,36.27
2018-11-04T23:26:53.495Z,28.93
2018-11-04T23:29:20.851Z,29.47
2018-11-04T23:31:48.035Z,27.40
2018-11-04T23:34:15.215Z,40.87
2018-11-04T23:36:42.385Z,30.40
2018-11-04T23:39:10.311Z,31.40
2018-11-04T23:41:37.486Z,28.80
2018-11-04T23:44:04.803Z,27.77
2018-11-04T23:46:31.971Z,26.67
2018-11-04T23:48:59.194Z,28.27
2018-11-04T23:51:26.418Z,28.77
2018-11-04T23:53:53.590Z,26.37
2018-11-04T23:56:20.759Z,26.87
2018-11-04T23:58:47.943Z,26.50
